createdAt,value
2018-04-28T00:02:18.543Z,15.84
2018-04-28T00:04:46.042Z,15.79
2018-04-28T00:07:13.511Z,15.74
2018-04-28T00:09:40.994Z,15.75
2018-04-28T00:12:08.473Z,15.77
2018-04-28T00:14:35.948Z,15.89
2018-04-28T00:17:04.062Z,15.93
2018-04-28T00:19:31.561Z,15.94
2018-04-28T00:22:02.010Z,15.97
2018-04-28T00:24:45.207Z,15.94
2018-04-28T00:27:12.694Z,15.92
2018-04-28T00:29:43.543Z,15.93
2018-04-28T00:32:11.022Z,15.90
2018-04-28T00:34:42.470Z,15.87
2018-04-28T00:37:14.344Z,15.88
2018-04-28T00:42:44.940Z,15.89
2018-04-28T00:45:14.016Z,15.85
2018-04-28T00:47:42.538Z,15.82
2018-04-28T00:50:19.950Z,15.83
2018-04-28T00:52:47.439Z,15.78
2018-04-28T00:55:17.715Z,15.67
2018-04-28T01:01:09.086Z,15.62
2018-04-28T01:03:44.498Z,15.66
2018-04-28T01:06:12.067Z,15.66
2018-04-28T01:08:40.443Z,15.65
2018-04-28T01:11:13.586Z,15.65
2018-04-28T01:13:41.054Z,15.69
2018-04-28T01:16:08.544Z,15.73
2018-04-28T01:18:48.014Z,15.74
2018-04-28T01:21:34.259Z,15.79
2018-04-28T01:24:09.611Z,15.77
2018-04-28T01:30:04.916Z,15.72
2018-04-28T01:35:52.755Z,15.70
2018-04-28T01:38:21.722Z,15.66
2018-04-28T01:40:49.187Z,15.64
2018-04-28T01:46:21.804Z,15.54
2018-04-28T01:48:51.915Z,15.51
2018-04-28T01:54:36.911Z,15.53
2018-04-28T01:57:19.137Z,15.53
2018-04-28T01:59:54.339Z,15.50
2018-04-28T02:02:22.559Z,15.47
2018-04-28T02:04:57.643Z,15.46
2018-04-28T02:07:25.795Z,15.44
2018-04-28T02:09:53.262Z,15.43
2018-04-28T02:12:31.376Z,15.46
2018-04-28T02:15:06.583Z,15.42
2018-04-28T02:17:47.523Z,15.42
2018-04-28T02:23:35.816Z,15.47
2018-04-28T02:26:09.739Z,15.45
2018-04-28T02:28:47.451Z,15.46
2018-04-28T02:34:38.612Z,15.49
2018-04-28T02:40:11.854Z,15.48
2018-04-28T02:42:42.163Z,15.45
2018-04-28T02:45:16.239Z,15.48
2018-04-28T02:47:46.432Z,15.45
2018-04-28T02:50:13.922Z,15.43
2018-04-28T02:55:49.143Z,15.38
2018-04-28T02:58:32.435Z,15.36
2018-04-28T03:07:07.687Z,15.31
2018-04-28T03:09:35.175Z,15.32
2018-04-28T03:12:03.443Z,15.30
2018-04-28T03:14:31.847Z,15.29
2018-04-28T03:17:00.794Z,15.27
2018-04-28T03:19:30.625Z,15.28
2018-04-28T03:21:58.918Z,15.27
2018-04-28T03:27:30.522Z,15.27
2018-04-28T03:30:03.904Z,15.25
2018-04-28T03:32:37.946Z,15.22
2018-04-28T03:35:08.194Z,15.19
2018-04-28T03:37:39.140Z,15.15
2018-04-28T03:40:09.984Z,15.15
2018-04-28T03:45:39.991Z,15.01
2018-04-28T03:48:10.291Z,15.00
2018-04-28T03:50:37.789Z,15.00
2018-04-28T03:53:24.983Z,15.00
2018-04-28T03:55:53.915Z,15.04
2018-04-28T03:58:33.144Z,15.00
2018-04-28T04:01:12.492Z,14.96
2018-04-28T04:03:51.863Z,15.00
2018-04-28T04:06:21.135Z,15.05
2018-04-28T04:08:49.402Z,15.05
2018-04-28T04:14:30.820Z,14.99
2018-04-28T04:20:18.418Z,15.10
2018-04-28T04:22:55.909Z,15.09
2018-04-28T04:25:31.325Z,15.11
2018-04-28T04:28:06.634Z,15.11
2018-04-28T04:30:50.758Z,15.13
2018-04-28T04:36:16.995Z,15.09
2018-04-28T04:38:46.382Z,15.09
2018-04-28T04:44:44.166Z,15.01
2018-04-28T04:50:53.358Z,14.95
2018-04-28T04:53:32.698Z,14.93
2018-04-28T04:56:21.776Z,14.78
2018-04-28T04:59:04.149Z,14.69
2018-04-28T05:04:49.278Z,13.59
2018-04-28T05:07:22.654Z,13.08
2018-04-28T05:10:00.114Z,12.75
2018-04-28T05:12:29.510Z,12.65
2018-04-28T05:15:08.890Z,12.58
2018-04-28T05:17:39.810Z,12.50
2018-04-28T05:20:19.036Z,12.52
2018-04-28T05:22:56.446Z,12.44
2018-04-28T05:25:31.734Z,12.40
2018-04-28T05:28:05.890Z,12.45
2018-04-28T05:30:37.850Z,12.43
2018-04-28T05:33:17.186Z,12.48
2018-04-28T05:36:06.358Z,12.45
2018-04-28T05:38:55.657Z,12.51
2018-04-28T05:41:35.064Z,12.56
2018-04-28T05:44:14.405Z,12.59
2018-04-28T05:50:07.365Z,12.69
2018-04-28T05:52:46.686Z,12.73
2018-04-28T05:55:25.758Z,12.72
2018-04-28T06:00:54.924Z,12.73
2018-04-28T06:06:26.958Z,12.46
2018-04-28T06:09:00.947Z,12.09
2018-04-28T06:11:33.786Z,11.95
2018-04-28T06:14:13.409Z,11.91
2018-04-28T06:16:43.866Z,11.84
2018-04-28T06:19:22.143Z,11.78
2018-04-28T06:21:49.804Z,11.79
2018-04-28T06:24:17.299Z,11.74
2018-04-28T06:26:44.759Z,11.73
2018-04-28T06:29:12.295Z,11.87
2018-04-28T06:31:39.766Z,12.11
2018-04-28T06:34:07.249Z,12.19
2018-04-28T06:36:34.714Z,12.22
2018-04-28T06:39:02.194Z,12.24
2018-04-28T06:41:29.662Z,12.18
2018-04-28T06:43:57.188Z,12.34
2018-04-28T06:46:24.703Z,12.45
2018-04-28T06:48:52.251Z,12.63
2018-04-28T06:51:19.746Z,12.90
2018-04-28T06:53:47.236Z,13.17
2018-04-28T06:56:14.710Z,13.39
2018-04-28T06:58:42.231Z,13.48
2018-04-28T07:01:09.706Z,13.39
2018-04-28T07:03:37.230Z,13.51
2018-04-28T07:06:04.698Z,13.71
2018-04-28T07:08:32.182Z,13.83
2018-04-28T07:10:59.674Z,13.88
2018-04-28T07:13:27.138Z,13.93
2018-04-28T07:15:54.634Z,13.91
2018-04-28T07:18:22.163Z,14.02
2018-04-28T07:20:49.670Z,14.20
2018-04-28T07:23:17.161Z,14.19
2018-04-28T07:25:44.654Z,14.22
2018-04-28T07:28:12.153Z,14.37
2018-04-28T07:30:39.638Z,14.35
2018-04-28T07:33:07.119Z,14.56
2018-04-28T07:35:34.621Z,14.46
2018-04-28T07:38:02.190Z,14.56
2018-04-28T07:40:29.674Z,14.33
2018-04-28T07:42:57.135Z,14.43
2018-04-28T07:45:24.630Z,14.38
2018-04-28T07:47:52.110Z,14.35
2018-04-28T07:50:19.599Z,14.32
2018-04-28T07:52:47.085Z,14.26
2018-04-28T07:55:14.615Z,14.31
2018-04-28T07:57:42.074Z,14.31
2018-04-28T08:00:09.590Z,14.49
2018-04-28T08:02:37.050Z,14.49
2018-04-28T08:05:04.570Z,14.75
2018-04-28T08:07:32.119Z,14.83
2018-04-28T08:09:59.615Z,14.96
2018-04-28T08:12:27.101Z,15.10
2018-04-28T08:14:54.596Z,15.38
2018-04-28T08:17:22.135Z,15.49
2018-04-28T08:19:49.674Z,15.36
2018-04-28T08:22:17.154Z,15.68
2018-04-28T08:24:45.652Z,15.75
2018-04-28T08:27:13.118Z,15.79
2018-04-28T08:29:40.586Z,15.84
2018-04-28T08:32:08.108Z,16.31
2018-04-28T08:34:35.603Z,16.72
2018-04-28T08:37:03.151Z,17.40
2018-04-28T08:39:30.598Z,18.02
2018-04-28T08:41:58.090Z,18.57
2018-04-28T08:44:25.613Z,18.91
2018-04-28T08:46:53.091Z,19.30
2018-04-28T08:49:20.570Z,19.11
2018-04-28T08:51:48.076Z,19.07
2018-04-28T08:54:15.621Z,18.88
2018-04-28T08:56:43.199Z,19.23
2018-04-28T08:59:10.627Z,19.07
2018-04-28T09:01:38.138Z,18.71
2018-04-28T09:04:05.618Z,19.10
2018-04-28T09:06:33.120Z,19.06
2018-04-28T09:09:00.602Z,19.33
2018-04-28T09:11:28.094Z,19.32
2018-04-28T09:13:55.625Z,19.42
2018-04-28T09:16:23.122Z,19.49
2018-04-28T09:18:50.584Z,19.32
2018-04-28T09:21:18.066Z,19.25
2018-04-28T09:23:45.550Z,19.43
2018-04-28T09:26:13.147Z,19.39
2018-04-28T09:28:40.598Z,19.65
2018-04-28T09:31:08.086Z,19.58
2018-04-28T09:33:35.547Z,19.93
2018-04-28T09:36:03.045Z,19.93
2018-04-28T09:38:30.516Z,20.01
2018-04-28T09:40:58.018Z,20.51
2018-04-28T09:43:25.518Z,20.68
2018-04-28T09:45:53.001Z,20.56
2018-04-28T09:48:20.470Z,21.06
2018-04-28T09:50:47.957Z,21.14
2018-04-28T09:53:15.478Z,21.56
2018-04-28T09:55:42.960Z,21.60
2018-04-28T09:58:10.507Z,22.11
2018-04-28T10:00:53.743Z,22.38
2018-04-28T10:03:22.152Z,22.40
2018-04-28T10:05:49.683Z,22.38
2018-04-28T10:08:17.181Z,22.67
2018-04-28T10:10:44.656Z,22.30
2018-04-28T10:13:12.159Z,22.87
2018-04-28T10:15:39.642Z,23.14
2018-04-28T10:18:07.158Z,23.28
2018-04-28T10:20:34.644Z,23.35
2018-04-28T10:23:02.175Z,23.71
2018-04-28T10:25:29.668Z,24.45
2018-04-28T10:27:57.161Z,24.71
2018-04-28T10:30:24.657Z,25.49
2018-04-28T10:32:52.150Z,25.15
2018-04-28T10:35:19.630Z,25.36
2018-04-28T10:37:47.136Z,25.77
2018-04-28T10:40:14.622Z,25.72
2018-04-28T10:42:42.122Z,26.01
2018-04-28T10:45:09.718Z,26.02
2018-04-28T10:47:37.246Z,27.03
2018-04-28T10:50:04.719Z,27.09
2018-04-28T10:52:32.206Z,26.79
2018-04-28T10:54:59.683Z,27.26
2018-04-28T10:57:27.360Z,27.08
2018-04-28T10:59:54.830Z,27.12
2018-04-28T11:02:22.376Z,26.02
2018-04-28T11:04:49.851Z,26.89
2018-04-28T11:07:17.451Z,28.02
2018-04-28T11:09:44.938Z,28.76
2018-04-28T11:12:12.423Z,28.28
2018-04-28T11:14:39.922Z,28.84
2018-04-28T11:17:07.419Z,28.79
2018-04-28T11:19:35.035Z,29.32
2018-04-28T11:22:02.532Z,30.02
2018-04-28T11:24:30.019Z,29.68
2018-04-28T11:26:58.534Z,30.89
2018-04-28T11:29:26.162Z,31.12
2018-04-28T11:31:56.456Z,31.12
2018-04-28T11:34:24.211Z,31.27
2018-04-28T11:36:51.743Z,31.74
2018-04-28T11:39:19.223Z,31.43
2018-04-28T11:41:46.702Z,31.72
2018-04-28T11:44:14.189Z,31.20
2018-04-28T11:46:41.697Z,32.83
2018-04-28T11:49:09.202Z,31.88
2018-04-28T11:51:36.682Z,32.74
2018-04-28T11:54:04.200Z,33.37
2018-04-28T11:56:31.668Z,33.63
2018-04-28T11:58:59.279Z,33.51
2018-04-28T12:01:26.684Z,33.82
2018-04-28T12:03:54.195Z,33.95
2018-04-28T12:06:21.670Z,33.52
2018-04-28T12:08:49.187Z,32.53
2018-04-28T12:11:16.656Z,33.02
2018-04-28T12:13:44.159Z,33.33
2018-04-28T12:16:11.629Z,33.86
2018-04-28T12:18:39.145Z,34.02
2018-04-28T12:21:06.685Z,34.99
2018-04-28T12:23:34.144Z,35.68
2018-04-28T12:26:01.616Z,34.95
2018-04-28T12:28:29.112Z,34.07
2018-04-28T12:30:56.607Z,35.05
2018-04-28T12:33:24.094Z,36.24
2018-04-28T12:35:51.563Z,37.41
2018-04-28T12:38:19.059Z,38.55
2018-04-28T12:40:46.550Z,39.31
2018-04-28T12:43:14.039Z,38.89
2018-04-28T12:45:41.517Z,38.44
2018-04-28T12:48:09.014Z,37.51
2018-04-28T12:50:36.487Z,37.99
2018-04-28T12:53:03.988Z,38.12
2018-04-28T12:55:31.455Z,36.93
2018-04-28T12:57:58.950Z,36.15
2018-04-28T13:00:26.461Z,35.92
2018-04-28T13:02:53.947Z,34.33
2018-04-28T13:05:21.425Z,35.57
2018-04-28T13:07:48.915Z,34.96
2018-04-28T13:10:16.382Z,34.72
2018-04-28T13:12:43.853Z,34.56
2018-04-28T13:15:11.338Z,34.78
2018-04-28T13:17:38.830Z,35.36
2018-04-28T13:20:06.324Z,34.18
2018-04-28T13:22:33.797Z,36.45
2018-04-28T13:25:01.313Z,36.19
2018-04-28T13:27:28.815Z,36.51
2018-04-28T13:29:56.313Z,37.10
2018-04-28T13:32:23.778Z,34.96
2018-04-28T13:34:51.288Z,33.98
2018-04-28T13:37:18.761Z,34.93
2018-04-28T13:39:46.255Z,33.22
2018-04-28T13:42:13.856Z,32.90
2018-04-28T13:44:41.348Z,32.15
2018-04-28T13:47:08.838Z,31.92
2018-04-28T13:49:36.326Z,32.63
2018-04-28T13:52:03.786Z,31.78
2018-04-28T13:54:31.288Z,31.43
2018-04-28T13:56:58.752Z,30.84
2018-04-28T13:59:26.241Z,30.73
2018-04-28T14:01:53.706Z,30.20
2018-04-28T14:04:21.195Z,30.29
2018-04-28T14:06:48.654Z,29.90
2018-04-28T14:09:16.157Z,32.15
2018-04-28T14:11:43.622Z,33.81
2018-04-28T14:14:11.139Z,32.60
2018-04-28T14:16:38.803Z,33.00
2018-04-28T14:19:06.303Z,33.66
2018-04-28T14:21:33.770Z,32.90
2018-04-28T14:24:01.285Z,35.02
2018-04-28T14:26:28.754Z,35.57
2018-04-28T14:28:56.254Z,34.42
2018-04-28T14:31:23.722Z,34.43
2018-04-28T14:33:51.241Z,35.52
2018-04-28T14:36:18.707Z,36.95
2018-04-28T14:38:46.165Z,35.64
2018-04-28T14:41:13.857Z,35.77
2018-04-28T14:43:41.313Z,35.93
2018-04-28T14:46:08.865Z,36.67
2018-04-28T14:48:36.286Z,36.38
2018-04-28T14:51:03.772Z,35.52
2018-04-28T14:53:31.238Z,35.05
2018-04-28T14:55:58.727Z,32.03
2018-04-28T14:58:26.198Z,31.29
2018-04-28T15:00:53.719Z,29.59
2018-04-28T15:03:21.206Z,28.10
2018-04-28T15:05:48.759Z,26.75
2018-04-28T15:08:16.266Z,26.32
2018-04-28T15:10:43.781Z,26.73
2018-04-28T15:13:11.465Z,26.92
2018-04-28T15:15:38.961Z,26.76
2018-04-28T15:18:06.435Z,26.09
2018-04-28T15:20:33.931Z,25.83
2018-04-28T15:23:01.412Z,24.81
2018-04-28T15:25:28.946Z,23.98
2018-04-28T15:27:56.440Z,23.63
2018-04-28T15:30:23.938Z,23.45
2018-04-28T15:32:51.434Z,23.30
2018-04-28T15:35:18.933Z,23.07
2018-04-28T15:37:46.402Z,22.90
2018-04-28T15:40:13.906Z,22.72
2018-04-28T15:42:41.387Z,23.26
2018-04-28T15:45:08.873Z,23.11
2018-04-28T15:47:36.354Z,22.91
2018-04-28T15:50:03.870Z,22.72
2018-04-28T15:52:31.370Z,22.67
2018-04-28T15:54:58.878Z,22.70
2018-04-28T15:57:26.367Z,22.75
2018-04-28T15:59:53.875Z,22.80
2018-04-28T16:02:21.355Z,22.69
2018-04-28T16:04:48.873Z,22.66
2018-04-28T16:07:16.378Z,22.70
2018-04-28T16:09:43.886Z,22.67
2018-04-28T16:12:11.380Z,22.85
2018-04-28T16:14:38.993Z,22.55
2018-04-28T16:17:06.451Z,22.39
2018-04-28T16:19:33.936Z,22.24
2018-04-28T16:22:01.458Z,22.39
2018-04-28T16:24:28.927Z,22.03
2018-04-28T16:26:56.475Z,21.94
2018-04-28T16:29:23.978Z,21.69
2018-04-28T16:31:51.484Z,21.37
2018-04-28T16:34:18.969Z,21.38
2018-04-28T16:36:46.499Z,21.08
2018-04-28T16:39:14.127Z,20.87
2018-04-28T16:41:41.594Z,20.83
2018-04-28T16:44:09.101Z,20.86
2018-04-28T16:46:36.611Z,20.87
2018-04-28T16:49:04.078Z,20.74
2018-04-28T16:51:31.574Z,20.95
2018-04-28T16:53:59.067Z,21.23
2018-04-28T16:56:26.588Z,21.27
2018-04-28T16:58:54.071Z,21.24
2018-04-28T17:01:21.625Z,21.06
2018-04-28T17:03:49.151Z,20.91
2018-04-28T17:06:16.687Z,20.85
2018-04-28T17:08:44.207Z,20.81
2018-04-28T17:11:11.750Z,20.68
2018-04-28T17:13:39.424Z,20.48
2018-04-28T17:16:07.013Z,20.42
2018-04-28T17:18:34.471Z,20.41
2018-04-28T17:21:05.624Z,20.30
2018-04-28T17:23:35.309Z,20.26
2018-04-28T17:26:03.238Z,20.26
2018-04-28T17:28:30.858Z,20.26
2018-04-28T17:30:58.378Z,20.11
2018-04-28T17:33:25.841Z,20.05
2018-04-28T17:35:53.327Z,19.95
2018-04-28T17:38:20.852Z,19.79
2018-04-28T17:40:48.380Z,19.67
2018-04-28T17:43:16.029Z,19.58
2018-04-28T17:45:43.617Z,19.50
2018-04-28T17:48:11.131Z,19.39
2018-04-28T17:50:38.680Z,19.31
2018-04-28T17:53:06.234Z,19.23
2018-04-28T17:55:33.714Z,19.24
2018-04-28T17:58:01.223Z,19.17
2018-04-28T18:00:28.720Z,19.09
2018-04-28T18:02:56.268Z,19.00
2018-04-28T18:05:23.722Z,18.90
2018-04-28T18:07:51.248Z,18.82
2018-04-28T18:10:18.750Z,18.76
2018-04-28T18:12:46.289Z,18.68
2018-04-28T18:15:13.775Z,18.58
2018-04-28T18:17:41.366Z,18.55
2018-04-28T18:20:08.826Z,18.50
2018-04-28T18:22:36.369Z,18.45
2018-04-28T18:25:03.850Z,18.41
2018-04-28T18:27:31.352Z,18.35
2018-04-28T18:29:58.846Z,18.27
2018-04-28T18:32:26.354Z,18.26
2018-04-28T18:34:53.846Z,18.21
2018-04-28T18:37:21.347Z,18.18
2018-04-28T18:39:48.818Z,18.15
2018-04-28T18:42:16.318Z,18.07
2018-04-28T18:44:43.807Z,18.07
2018-04-28T18:47:11.318Z,18.05
2018-04-28T18:49:38.782Z,18.00
2018-04-28T18:52:06.288Z,17.97
2018-04-28T18:54:33.766Z,17.94
2018-04-28T18:57:01.273Z,17.91
2018-04-28T18:59:28.766Z,17.85
2018-04-28T19:01:56.254Z,17.78
2018-04-28T19:04:23.730Z,17.71
2018-04-28T19:06:51.239Z,17.71
2018-04-28T19:09:18.762Z,17.69
2018-04-28T19:11:46.272Z,17.65
2018-04-28T19:14:13.805Z,17.60
2018-04-28T19:16:41.271Z,17.61
2018-04-28T19:19:08.769Z,17.56
2018-04-28T19:21:36.260Z,17.54
2018-04-28T19:24:03.785Z,17.52
2018-04-28T19:26:31.289Z,17.49
2018-04-28T19:28:58.792Z,17.46
2018-04-28T19:31:26.290Z,17.43
2018-04-28T19:33:53.790Z,17.41
2018-04-28T19:36:21.311Z,17.39
2018-04-28T19:38:48.806Z,17.34
2018-04-28T19:41:16.291Z,17.33
2018-04-28T19:43:43.782Z,17.27
2018-04-28T19:46:11.260Z,17.22
2018-04-28T19:48:38.778Z,17.19
2018-04-28T19:51:06.241Z,17.15
2018-04-28T19:53:33.758Z,17.14
2018-04-28T19:56:01.234Z,17.06
2018-04-28T19:58:28.768Z,17.03
2018-04-28T20:00:56.282Z,16.42
2018-04-28T20:03:23.766Z,15.67
2018-04-28T20:05:51.247Z,15.15
2018-04-28T20:08:18.760Z,14.79
2018-04-28T20:10:46.227Z,14.63
2018-04-28T20:13:13.710Z,14.59
2018-04-28T20:15:41.183Z,14.40
2018-04-28T20:18:08.698Z,13.91
2018-04-28T20:20:36.205Z,13.48
2018-04-28T20:23:15.667Z,13.27
2018-04-28T20:25:43.192Z,13.14
2018-04-28T20:28:10.718Z,13.10
2018-04-28T20:30:39.985Z,13.11
2018-04-28T20:33:10.422Z,13.08
2018-04-28T20:35:38.002Z,13.08
2018-04-28T20:38:05.481Z,13.00
2018-04-28T20:40:32.946Z,13.05
2018-04-28T20:43:00.480Z,13.12
2018-04-28T20:45:27.942Z,13.24
2018-04-28T20:47:55.425Z,13.27
2018-04-28T20:50:22.889Z,13.12
2018-04-28T20:52:50.386Z,12.93
2018-04-28T20:55:17.858Z,12.89
2018-04-28T20:57:45.322Z,12.85
2018-04-28T21:00:12.805Z,12.77
2018-04-28T21:02:40.291Z,12.75
2018-04-28T21:05:07.778Z,12.68
2018-04-28T21:07:35.245Z,12.57
2018-04-28T21:10:02.754Z,12.54
2018-04-28T21:12:30.214Z,12.54
2018-04-28T21:14:57.734Z,12.54
2018-04-28T21:17:25.200Z,12.58
2018-04-28T21:19:52.691Z,12.59
2018-04-28T21:22:20.158Z,12.69
2018-04-28T21:24:47.682Z,12.71
2018-04-28T21:27:15.139Z,12.74
2018-04-28T21:29:42.947Z,12.73
2018-04-28T21:32:10.656Z,12.72
2018-04-28T21:34:38.137Z,12.71
2018-04-28T21:37:05.610Z,12.83
2018-04-28T21:39:33.106Z,13.01
2018-04-28T21:42:00.579Z,12.99
2018-04-28T21:44:28.071Z,13.00
2018-04-28T21:46:55.533Z,12.83
2018-04-28T21:49:23.048Z,12.72
2018-04-28T21:51:50.542Z,12.53
2018-04-28T21:54:18.051Z,12.35
2018-04-28T21:56:45.518Z,12.23
2018-04-28T21:59:13.024Z,12.23
2018-04-28T22:01:40.490Z,12.13
2018-04-28T22:04:07.973Z,12.17
2018-04-28T22:06:35.508Z,12.18
2018-04-28T22:09:02.989Z,12.15
2018-04-28T22:11:30.461Z,11.99
2018-04-28T22:13:57.957Z,11.99
2018-04-28T22:16:25.422Z,12.01
2018-04-28T22:18:52.903Z,11.92
2018-04-28T22:21:20.362Z,11.86
2018-04-28T22:23:47.820Z,11.80
2018-04-28T22:26:15.302Z,11.78
2018-04-28T22:28:42.775Z,11.77
2018-04-28T22:31:10.398Z,11.88
2018-04-28T22:33:37.873Z,11.77
2018-04-28T22:36:05.367Z,11.70
2018-04-28T22:38:32.833Z,11.65
2018-04-28T22:41:00.346Z,11.61
2018-04-28T22:43:27.822Z,11.63
2018-04-28T22:45:57.995Z,11.56
2018-04-28T22:48:25.826Z,11.54
2018-04-28T22:50:53.430Z,11.46
2018-04-28T22:53:20.886Z,11.43
2018-04-28T22:55:48.371Z,11.35
2018-04-28T22:58:15.837Z,11.31
2018-04-28T23:00:43.346Z,11.35
2018-04-28T23:03:11.155Z,11.32
2018-04-28T23:05:38.678Z,11.36
2018-04-28T23:08:06.139Z,11.35
2018-04-28T23:10:33.626Z,11.25
2018-04-28T23:13:01.090Z,11.20
2018-04-28T23:15:28.583Z,11.29
2018-04-28T23:17:56.050Z,11.29
2018-04-28T23:20:23.539Z,11.28
2018-04-28T23:22:50.995Z,11.16
2018-04-28T23:25:18.480Z,11.11
2018-04-28T23:27:45.955Z,11.06
2018-04-28T23:30:13.446Z,11.06
2018-04-28T23:32:40.906Z,11.07
2018-04-28T23:35:08.394Z,11.17
2018-04-28T23:37:35.860Z,11.25
2018-04-28T23:40:03.362Z,11.29
2018-04-28T23:42:30.827Z,11.23
2018-04-28T23:44:58.317Z,11.19
2018-04-28T23:47:25.776Z,11.26
2018-04-28T23:49:53.262Z,11.26
2018-04-28T23:52:20.728Z,11.26
2018-04-28T23:54:48.206Z,11.23
2018-04-28T23:57:15.687Z,11.18
2018-04-28T23:59:43.143Z,11.11
